Time;durP1;ratioP1;P1;durP2;ratioP2;P2;SDS_P1;SDS_P2;PMS_P1;PMS_P2;Temp;Humidity;BMP_temperature;BMP_pressure;BME280_temperature;BME280_humidity;BME280_pressure;Samples;Min_cycle;Max_cycle;Signal;HPM_P1;HPM_P2
2020/12/20 00:02:23;;;;;;;10.40;8.00;;;;;;;;;;5074923;28;20877;-76
2020/12/20 00:04:50;;;;;;;9.93;7.30;;;;;;;;;;5074036;28;20516;-77
2020/12/20 00:07:17;;;;;;;8.10;7.10;;;;;;;;;;5072141;28;20502;-77
2020/12/20 00:09:43;;;;;;;8.37;6.90;;;;;;;;;;5067378;28;21036;-75
2020/12/20 00:12:10;;;;;;;9.80;7.17;;;;;;;;;;5069265;28;20474;-75
2020/12/20 00:14:38;;;;;;;8.97;7.40;;;;;;;;;;5070288;28;20470;-76
2020/12/20 00:17:07;;;;;;;8.67;7.37;;;;;;;;;;5070557;28;20527;-75
2020/12/20 00:19:35;;;;;;;9.77;7.07;;;;;;;;;;5068938;28;20459;-74
2020/12/20 00:22:02;;;;;;;7.73;6.43;;;;;;;;;;5072976;28;20462;-76
2020/12/20 00:24:29;;;;;;;7.70;6.43;;;;;;;;;;5072602;28;20514;-74
2020/12/20 00:26:56;;;;;;;7.33;6.53;;;;;;;;;;5072485;28;21021;-75
2020/12/20 00:29:23;;;;;;;10.00;6.53;;;;;;;;;;5071118;28;20441;-74
2020/12/20 00:31:50;;;;;;;7.37;6.30;;;;;;;;;;5066788;28;21173;-75
2020/12/20 00:34:18;;;;;;;8.00;6.80;;;;;;;;;;5068899;28;20497;-76
2020/12/20 00:36:45;;;;;;;9.30;7.37;;;;;;;;;;5070174;28;20550;-76
2020/12/20 00:39:12;;;;;;;10.20;6.93;;;;;;;;;;5070470;28;20523;-75
2020/12/20 00:41:39;;;;;;;11.83;6.37;;;;;;;;;;5069981;28;20492;-76
2020/12/20 00:44:06;;;;;;;7.87;5.87;;;;;;;;;;5072255;28;20589;-75
2020/12/20 00:46:35;;;;;;;8.70;6.50;;;;;;;;;;5070706;28;20491;-76
2020/12/20 00:49:02;;;;;;;7.80;5.97;;;;;;;;;;5071119;28;21088;-76
2020/12/20 00:51:30;;;;;;;8.13;6.50;;;;;;;;;;5070754;28;21015;-75
2020/12/20 00:53:57;;;;;;;8.20;6.30;;;;;;;;;;5066372;28;20536;-75
2020/12/20 00:56:24;;;;;;;8.03;6.03;;;;;;;;;;5068988;28;20962;-75
2020/12/20 00:58:51;;;;;;;7.33;6.30;;;;;;;;;;5069648;28;20447;-75
2020/12/20 01:01:18;;;;;;;7.33;6.10;;;;;;;;;;5069733;28;21016;-76
2020/12/20 01:03:45;;;;;;;7.60;5.70;;;;;;;;;;5069842;28;20487;-75
2020/12/20 01:06:15;;;;;;;6.47;5.83;;;;;;;;;;5072064;28;20574;-75
2020/12/20 01:08:43;;;;;;;6.93;5.80;;;;;;;;;;5070150;28;20447;-76
2020/12/20 01:11:10;;;;;;;10.47;5.60;;;;;;;;;;5071692;28;20459;-75
2020/12/20 01:13:37;;;;;;;8.60;6.43;;;;;;;;;;5065424;28;20570;-75
2020/12/20 01:16:04;;;;;;;7.70;6.63;;;;;;;;;;5066736;28;20463;-74
2020/12/20 01:18:31;;;;;;;7.07;6.10;;;;;;;;;;5067912;28;20436;-75
2020/12/20 01:20:57;;;;;;;7.93;5.93;;;;;;;;;;5067845;28;20440;-75
2020/12/20 01:23:24;;;;;;;6.50;5.80;;;;;;;;;;5067785;28;20841;-74
2020/12/20 01:25:52;;;;;;;9.20;6.70;;;;;;;;;;5070197;28;20487;-75
2020/12/20 01:28:19;;;;;;;7.73;6.90;;;;;;;;;;5071361;28;20447;-74
2020/12/20 01:30:46;;;;;;;9.90;6.00;;;;;;;;;;5071619;28;20565;-74
2020/12/20 01:33:12;;;;;;;6.60;5.63;;;;;;;;;;5071541;28;20468;-75
2020/12/20 01:35:39;;;;;;;8.50;5.37;;;;;;;;;;5066849;28;20497;-74
2020/12/20 01:38:06;;;;;;;11.57;6.27;;;;;;;;;;5066368;28;20439;-76
2020/12/20 01:40:33;;;;;;;10.00;5.57;;;;;;;;;;5069113;28;20996;-75
2020/12/20 01:43:01;;;;;;;10.00;6.43;;;;;;;;;;5069234;28;20960;-75
2020/12/20 01:45:28;;;;;;;8.97;5.10;;;;;;;;;;5069321;28;20853;-75
2020/12/20 01:47:54;;;;;;;8.40;6.33;;;;;;;;;;5070340;28;20462;-75
2020/12/20 01:50:21;;;;;;;7.00;5.23;;;;;;;;;;5071246;28;20501;-75
2020/12/20 01:52:48;;;;;;;9.43;6.47;;;;;;;;;;5071741;28;20835;-75
2020/12/20 01:55:19;;;;;;;11.27;6.80;;;;;;;;;;5070716;28;20947;-74
2020/12/20 01:57:46;;;;;;;7.20;5.83;;;;;;;;;;5066888;28;20535;-75
2020/12/20 02:00:13;;;;;;;6.87;5.87;;;;;;;;;;5066321;28;20428;-74
2020/12/20 02:02:40;;;;;;;7.67;6.30;;;;;;;;;;5069119;28;20435;-74
2020/12/20 02:05:07;;;;;;;8.80;6.57;;;;;;;;;;5068915;28;20984;-75
2020/12/20 02:07:34;;;;;;;7.73;6.33;;;;;;;;;;5069116;28;21189;-74
2020/12/20 02:10:01;;;;;;;7.63;6.10;;;;;;;;;;5069956;28;20471;-76
2020/12/20 02:12:28;;;;;;;7.07;6.00;;;;;;;;;;5071428;28;20519;-74
2020/12/20 02:14:55;;;;;;;8.27;6.10;;;;;;;;;;5071102;28;20980;-76
2020/12/20 02:17:22;;;;;;;7.07;6.37;;;;;;;;;;5071246;28;20436;-75
2020/12/20 02:19:49;;;;;;;8.83;6.10;;;;;;;;;;5066990;28;20521;-75
2020/12/20 02:22:17;;;;;;;7.93;6.07;;;;;;;;;;5069664;28;20955;-74
2020/12/20 02:24:44;;;;;;;7.67;5.77;;;;;;;;;;5072714;28;20463;-75
2020/12/20 02:27:11;;;;;;;6.73;6.03;;;;;;;;;;5058882;28;20467;-75
2020/12/20 02:29:38;;;;;;;7.33;6.40;;;;;;;;;;5052521;28;20516;-76
2020/12/20 02:32:05;;;;;;;6.07;5.07;;;;;;;;;;5066936;28;20440;-76
2020/12/20 02:34:32;;;;;;;9.53;6.60;;;;;;;;;;5069858;28;20516;-75
2020/12/20 02:36:58;;;;;;;5.80;5.20;;;;;;;;;;5069414;28;20428;-76
2020/12/20 02:39:26;;;;;;;8.53;6.67;;;;;;;;;;5072558;28;20450;-76
2020/12/20 02:41:55;;;;;;;8.20;6.60;;;;;;;;;;5071923;28;20442;-75
2020/12/20 02:44:22;;;;;;;7.47;6.30;;;;;;;;;;5070967;28;20478;-74
2020/12/20 02:46:49;;;;;;;9.10;6.60;;;;;;;;;;5073342;28;20844;-74
2020/12/20 02:49:16;;;;;;;11.23;6.70;;;;;;;;;;5074226;28;20460;-74
2020/12/20 02:51:42;;;;;;;5.83;5.20;;;;;;;;;;5074344;28;20530;-75
2020/12/20 02:54:09;;;;;;;8.43;6.33;;;;;;;;;;5074292;28;20462;-75
2020/12/20 02:56:42;;;;;;;9.00;6.70;;;;;;;;;;5069100;28;20857;-75
2020/12/20 02:59:09;;;;;;;8.93;7.00;;;;;;;;;;5069379;28;20431;-74
2020/12/20 03:01:35;;;;;;;8.97;6.57;;;;;;;;;;5071988;28;20439;-75
2020/12/20 03:04:02;;;;;;;8.33;6.30;;;;;;;;;;5070474;28;20478;-75
2020/12/20 03:06:29;;;;;;;7.53;6.27;;;;;;;;;;5072058;28;21062;-75
2020/12/20 03:08:56;;;;;;;12.53;5.80;;;;;;;;;;5073194;28;20858;-74
2020/12/20 03:11:23;;;;;;;7.73;6.63;;;;;;;;;;5074222;28;20535;-75
2020/12/20 03:13:50;;;;;;;9.30;6.57;;;;;;;;;;5073681;28;20558;-75
2020/12/20 03:16:17;;;;;;;11.00;6.67;;;;;;;;;;5074055;28;20500;-75
2020/12/20 03:18:44;;;;;;;7.00;5.93;;;;;;;;;;5068998;28;20438;-75
2020/12/20 03:21:11;;;;;;;9.30;7.47;;;;;;;;;;5069173;28;20436;-75
2020/12/20 03:23:38;;;;;;;7.70;6.23;;;;;;;;;;5071305;28;21045;-74
2020/12/20 03:26:06;;;;;;;8.20;6.67;;;;;;;;;;5071355;28;20486;-74
2020/12/20 03:28:33;;;;;;;7.60;6.33;;;;;;;;;;5071834;28;20531;-74
2020/12/20 03:31:01;;;;;;;7.30;6.60;;;;;;;;;;5072797;28;20817;-76
2020/12/20 03:33:28;;;;;;;7.50;6.80;;;;;;;;;;5072852;28;20546;-75
2020/12/20 03:35:55;;;;;;;7.50;6.30;;;;;;;;;;5073717;28;20485;-76
2020/12/20 03:38:22;;;;;;;7.90;7.13;;;;;;;;;;5073624;28;20937;-75
2020/12/20 03:40:48;;;;;;;7.53;6.47;;;;;;;;;;5068498;28;20447;-76
2020/12/20 03:43:15;;;;;;;10.10;7.30;;;;;;;;;;5068819;28;20517;-74
2020/12/20 03:45:42;;;;;;;7.27;6.27;;;;;;;;;;5071809;28;20493;-77
2020/12/20 03:48:09;;;;;;;8.80;6.00;;;;;;;;;;5075489;28;20531;-75
2020/12/20 03:50:36;;;;;;;9.60;6.70;;;;;;;;;;5073403;28;20442;-74
2020/12/20 03:53:03;;;;;;;8.03;6.50;;;;;;;;;;5072242;28;20568;-76
2020/12/20 03:55:30;;;;;;;8.37;6.10;;;;;;;;;;5073324;28;20444;-76
2020/12/20 03:57:57;;;;;;;7.23;6.20;;;;;;;;;;5073220;28;20501;-75
2020/12/20 04:00:24;;;;;;;9.60;6.90;;;;;;;;;;5073175;28;20436;-75
2020/12/20 04:02:50;;;;;;;7.30;6.27;;;;;;;;;;5067907;28;20921;-76
2020/12/20 04:05:18;;;;;;;12.00;6.90;;;;;;;;;;5068132;28;20567;-75
2020/12/20 04:07:45;;;;;;;7.23;5.97;;;;;;;;;;5070993;28;20879;-75
2020/12/20 04:10:12;;;;;;;9.47;6.97;;;;;;;;;;5070606;28;20534;-76
2020/12/20 04:12:38;;;;;;;7.30;6.10;;;;;;;;;;5070646;28;20443;-75
2020/12/20 04:15:05;;;;;;;9.00;6.83;;;;;;;;;;5071888;28;21065;-75
2020/12/20 04:17:32;;;;;;;6.87;6.20;;;;;;;;;;5072968;28;20447;-74
2020/12/20 04:19:59;;;;;;;6.90;6.20;;;;;;;;;;5072846;28;20515;-75
2020/12/20 04:22:27;;;;;;;6.83;6.13;;;;;;;;;;5073288;28;20501;-75
2020/12/20 04:24:53;;;;;;;7.63;6.27;;;;;;;;;;5067537;28;20683;-75
2020/12/20 04:27:20;;;;;;;7.17;6.20;;;;;;;;;;5067636;28;21686;-75
2020/12/20 04:29:47;;;;;;;10.23;6.87;;;;;;;;;;5070261;28;20997;-75
2020/12/20 04:32:14;;;;;;;9.33;6.63;;;;;;;;;;5070200;28;20524;-76
2020/12/20 04:34:41;;;;;;;11.17;7.37;;;;;;;;;;5070504;28;20448;-75
2020/12/20 04:37:08;;;;;;;9.93;6.40;;;;;;;;;;5071219;28;20547;-74
2020/12/20 04:39:35;;;;;;;7.23;6.07;;;;;;;;;;5072304;28;20446;-74
2020/12/20 04:42:02;;;;;;;8.67;6.93;;;;;;;;;;5072197;28;20451;-73
2020/12/20 04:44:29;;;;;;;8.60;6.73;;;;;;;;;;5070951;28;20557;-75
2020/12/20 04:46:56;;;;;;;6.93;6.23;;;;;;;;;;5067246;28;20490;-75
2020/12/20 04:49:23;;;;;;;7.60;6.80;;;;;;;;;;5067553;28;20521;-75
2020/12/20 04:51:50;;;;;;;7.77;6.37;;;;;;;;;;5069902;28;20518;-74
2020/12/20 04:54:17;;;;;;;10.60;6.27;;;;;;;;;;5068208;28;20466;-74
2020/12/20 04:56:45;;;;;;;9.40;6.67;;;;;;;;;;5069939;28;20489;-74
2020/12/20 04:59:13;;;;;;;6.90;5.93;;;;;;;;;;5071129;28;20558;-74
2020/12/20 05:01:40;;;;;;;7.20;6.20;;;;;;;;;;5071962;28;20446;-74
2020/12/20 05:04:07;;;;;;;7.47;6.23;;;;;;;;;;5071915;28;20710;-75
2020/12/20 05:06:35;;;;;;;8.20;6.70;;;;;;;;;;5071767;28;20582;-75
2020/12/20 05:09:03;;;;;;;9.97;6.40;;;;;;;;;;5066563;28;20937;-75
2020/12/20 05:11:34;;;;;;;10.80;6.60;;;;;;;;;;5065724;28;20455;-75
2020/12/20 05:14:02;;;;;;;7.07;6.07;;;;;;;;;;5069613;28;20466;-75
2020/12/20 05:16:34;;;;;;;12.07;7.10;;;;;;;;;;5069374;28;20428;-74
2020/12/20 05:19:01;;;;;;;8.27;6.17;;;;;;;;;;5069831;28;20436;-75
2020/12/20 05:21:29;;;;;;;7.70;6.90;;;;;;;;;;5069486;28;20462;-75
2020/12/20 05:23:56;;;;;;;8.43;6.30;;;;;;;;;;5071528;28;20495;-74
2020/12/20 05:26:26;;;;;;;6.93;5.97;;;;;;;;;;5070228;28;20506;-74
2020/12/20 05:28:53;;;;;;;7.90;6.73;;;;;;;;;;5071662;28;20447;-75
2020/12/20 05:31:21;;;;;;;9.30;6.90;;;;;;;;;;5065753;28;20879;-74
2020/12/20 05:33:50;;;;;;;9.53;7.40;;;;;;;;;;5066927;28;20456;-74
2020/12/20 05:36:24;;;;;;;8.50;6.70;;;;;;;;;;5069348;28;20440;-75
2020/12/20 05:38:51;;;;;;;9.77;6.33;;;;;;;;;;5067873;28;20452;-76
2020/12/20 05:41:29;;;;;;;7.30;5.97;;;;;;;;;;5069481;28;20776;-75
2020/12/20 05:44:11;;;;;;;9.50;6.70;;;;;;;;;;5049647;28;20802;-74
2020/12/20 05:46:39;;;;;;;7.80;6.50;;;;;;;;;;5051277;28;20574;-74
2020/12/20 05:49:13;;;;;;;8.83;6.60;;;;;;;;;;5051402;28;20505;-74
2020/12/20 05:51:40;;;;;;;8.10;7.30;;;;;;;;;;5055510;28;20807;-75
2020/12/20 05:54:14;;;;;;;6.83;6.13;;;;;;;;;;5065639;28;20513;-74
2020/12/20 05:56:40;;;;;;;7.40;6.57;;;;;;;;;;5067840;28;20444;-76
2020/12/20 05:59:12;;;;;;;9.67;7.17;;;;;;;;;;5068854;28;20535;-74
2020/12/20 06:01:40;;;;;;;11.07;6.97;;;;;;;;;;5069317;28;20440;-74
2020/12/20 06:04:07;;;;;;;9.70;8.27;;;;;;;;;;5069103;28;20478;-74
2020/12/20 06:06:36;;;;;;;10.20;7.97;;;;;;;;;;5071084;28;20529;-74
2020/12/20 06:09:03;;;;;;;8.27;7.00;;;;;;;;;;5071266;28;20469;-75
2020/12/20 06:11:32;;;;;;;7.37;6.30;;;;;;;;;;5071128;28;20440;-74
2020/12/20 06:14:00;;;;;;;7.87;6.30;;;;;;;;;;5068901;28;20460;-74
2020/12/20 06:16:28;;;;;;;9.27;7.83;;;;;;;;;;5065483;28;20439;-75
2020/12/20 06:19:02;;;;;;;8.63;7.03;;;;;;;;;;5068278;28;20806;-74
2020/12/20 06:21:43;;;;;;;8.77;7.30;;;;;;;;;;5068902;28;20526;-74
2020/12/20 06:24:12;;;;;;;8.83;7.40;;;;;;;;;;5068594;28;20529;-75
2020/12/20 06:26:43;;;;;;;9.00;7.00;;;;;;;;;;5069368;28;20563;-74
2020/12/20 06:29:15;;;;;;;12.80;7.70;;;;;;;;;;5071041;28;20505;-74
2020/12/20 06:31:42;;;;;;;9.37;7.20;;;;;;;;;;5070970;28;20492;-74
2020/12/20 06:34:15;;;;;;;10.40;7.77;;;;;;;;;;5070788;28;20466;-74
2020/12/20 06:36:42;;;;;;;8.90;8.00;;;;;;;;;;5066968;28;20433;-75
2020/12/20 06:39:08;;;;;;;9.27;8.13;;;;;;;;;;5066089;28;20425;-75
2020/12/20 06:41:36;;;;;;;9.80;7.40;;;;;;;;;;5067900;28;20811;-75
2020/12/20 06:44:12;;;;;;;9.90;7.27;;;;;;;;;;5067324;28;20480;-74
2020/12/20 06:46:39;;;;;;;8.87;7.97;;;;;;;;;;5067334;28;20483;-74
2020/12/20 06:49:20;;;;;;;9.47;7.80;;;;;;;;;;5069382;28;20459;-73
2020/12/20 06:51:48;;;;;;;9.87;7.17;;;;;;;;;;5069521;28;20497;-75
2020/12/20 06:54:25;;;;;;;8.90;7.33;;;;;;;;;;5070884;28;20487;-74
2020/12/20 06:57:09;;;;;;;7.70;6.90;;;;;;;;;;5070795;28;20428;-76
2020/12/20 06:59:43;;;;;;;10.47;7.87;;;;;;;;;;5063391;28;20944;-75
2020/12/20 07:02:09;;;;;;;9.03;7.83;;;;;;;;;;5057317;28;20938;-75
2020/12/20 07:04:40;;;;;;;11.63;8.20;;;;;;;;;;5047921;28;20464;-74
2020/12/20 07:07:09;;;;;;;10.53;8.33;;;;;;;;;;5048819;28;20492;-75
2020/12/20 07:09:36;;;;;;;9.40;7.87;;;;;;;;;;5056957;28;20436;-76
2020/12/20 07:12:05;;;;;;;12.77;8.33;;;;;;;;;;5072811;28;20920;-76
2020/12/20 07:14:35;;;;;;;9.87;8.80;;;;;;;;;;5068518;28;20452;-75
2020/12/20 07:17:02;;;;;;;12.87;9.20;;;;;;;;;;5069454;28;20858;-75
2020/12/20 07:19:29;;;;;;;11.80;9.07;;;;;;;;;;5070680;28;20841;-74
2020/12/20 07:21:57;;;;;;;12.10;9.20;;;;;;;;;;5071901;28;20459;-74
2020/12/20 07:24:25;;;;;;;9.90;8.60;;;;;;;;;;5071663;28;20987;-73
2020/12/20 07:26:56;;;;;;;10.90;7.70;;;;;;;;;;5053931;28;20871;-74
2020/12/20 07:29:23;;;;;;;12.20;8.87;;;;;;;;;;5052804;28;20441;-74
2020/12/20 07:31:52;;;;;;;10.63;9.53;;;;;;;;;;5072226;28;20532;-75
2020/12/20 07:34:19;;;;;;;10.83;8.80;;;;;;;;;;5073664;28;20459;-75
2020/12/20 07:36:46;;;;;;;10.23;9.07;;;;;;;;;;5068248;28;20466;-75
2020/12/20 07:39:13;;;;;;;10.93;8.70;;;;;;;;;;5069619;28;20527;-74
2020/12/20 07:41:40;;;;;;;13.93;8.10;;;;;;;;;;5070198;28;20855;-75
2020/12/20 07:44:08;;;;;;;12.30;9.40;;;;;;;;;;5071019;28;20513;-74
2020/12/20 07:46:35;;;;;;;12.90;9.10;;;;;;;;;;5049922;28;21039;-75
2020/12/20 07:49:05;;;;;;;10.40;8.77;;;;;;;;;;5051665;28;20449;-75
2020/12/20 07:51:32;;;;;;;10.10;8.33;;;;;;;;;;5050210;28;20532;-76
2020/12/20 07:54:01;;;;;;;12.20;9.53;;;;;;;;;;5051960;28;20477;-77
2020/12/20 07:56:29;;;;;;;13.20;8.70;;;;;;;;;;5053790;28;20539;-75
2020/12/20 07:58:57;;;;;;;9.87;8.77;;;;;;;;;;5066900;28;20432;-75
2020/12/20 08:01:24;;;;;;;9.80;8.70;;;;;;;;;;5068561;28;20447;-75
2020/12/20 08:04:01;;;;;;;11.30;8.30;;;;;;;;;;5069521;28;21021;-75
2020/12/20 08:06:28;;;;;;;11.33;8.97;;;;;;;;;;5070651;28;21063;-76
2020/12/20 08:09:01;;;;;;;10.93;8.50;;;;;;;;;;5070685;28;20438;-75
2020/12/20 08:11:28;;;;;;;9.93;8.80;;;;;;;;;;5071076;28;20530;-74
2020/12/20 08:13:56;;;;;;;10.17;9.03;;;;;;;;;;5072498;28;20462;-76
2020/12/20 08:16:25;;;;;;;12.43;9.17;;;;;;;;;;5068048;28;20440;-74
2020/12/20 08:18:53;;;;;;;11.90;10.10;;;;;;;;;;5067549;28;20769;-74
2020/12/20 08:21:21;;;;;;;13.93;9.00;;;;;;;;;;5070594;28;20429;-75
2020/12/20 08:23:48;;;;;;;11.10;9.50;;;;;;;;;;5070162;28;20817;-75
2020/12/20 08:26:28;;;;;;;13.47;9.57;;;;;;;;;;5070626;28;21075;-75
2020/12/20 08:28:57;;;;;;;12.20;9.60;;;;;;;;;;5071362;28;20496;-73
2020/12/20 08:31:27;;;;;;;14.43;10.70;;;;;;;;;;5072442;28;20574;-74
2020/12/20 08:33:54;;;;;;;13.90;10.47;;;;;;;;;;5072355;28;20521;-74
2020/12/20 08:36:21;;;;;;;11.73;9.10;;;;;;;;;;5072484;28;20451;-75
2020/12/20 08:38:48;;;;;;;15.77;10.70;;;;;;;;;;5067038;28;20447;-76
2020/12/20 08:41:20;;;;;;;10.43;9.30;;;;;;;;;;5067239;28;20432;-73
2020/12/20 08:43:47;;;;;;;12.20;9.70;;;;;;;;;;5069565;28;20468;-74
2020/12/20 08:46:27;;;;;;;13.07;9.20;;;;;;;;;;5069842;28;20927;-75
2020/12/20 08:48:54;;;;;;;11.77;8.87;;;;;;;;;;5070539;28;20549;-75
2020/12/20 08:51:23;;;;;;;10.90;9.73;;;;;;;;;;5071340;28;20531;-76
2020/12/20 08:53:50;;;;;;;12.93;10.00;;;;;;;;;;5071469;28;20464;-76
2020/12/20 08:56:17;;;;;;;12.07;10.00;;;;;;;;;;5072331;28;20461;-75
2020/12/20 08:58:48;;;;;;;12.23;9.33;;;;;;;;;;5072059;28;20476;-74
2020/12/20 09:01:15;;;;;;;11.50;10.30;;;;;;;;;;5067494;28;20425;-75
2020/12/20 09:03:42;;;;;;;11.70;9.20;;;;;;;;;;5066783;28;20470;-76
2020/12/20 09:06:13;;;;;;;14.17;9.30;;;;;;;;;;5063604;28;20479;-75
2020/12/20 09:08:40;;;;;;;12.63;10.40;;;;;;;;;;5057056;28;20432;-75
2020/12/20 09:11:07;;;;;;;12.13;10.83;;;;;;;;;;5070230;28;20523;-74
2020/12/20 09:13:34;;;;;;;11.23;9.53;;;;;;;;;;5054418;28;20477;-72
2020/12/20 09:16:01;;;;;;;16.33;9.23;;;;;;;;;;5068533;28;20544;-73
2020/12/20 09:18:29;;;;;;;12.10;8.80;;;;;;;;;;5071524;28;20527;-74
2020/12/20 09:20:56;;;;;;;12.23;9.30;;;;;;;;;;5071352;28;20472;-75
2020/12/20 09:23:23;;;;;;;10.53;9.37;;;;;;;;;;5067039;28;20487;-73
2020/12/20 09:25:51;;;;;;;10.67;9.20;;;;;;;;;;5066365;28;20687;-73
2020/12/20 09:28:21;;;;;;;11.90;10.23;;;;;;;;;;5069170;28;20594;-73
2020/12/20 09:30:49;;;;;;;13.83;11.03;;;;;;;;;;5068594;28;20861;-74
2020/12/20 09:33:16;;;;;;;13.50;10.07;;;;;;;;;;5069470;28;20507;-72
2020/12/20 09:35:51;;;;;;;11.70;10.50;;;;;;;;;;5068926;28;20531;-72
2020/12/20 09:38:19;;;;;;;13.67;10.07;;;;;;;;;;5070443;28;20530;-73
2020/12/20 09:40:45;;;;;;;14.60;10.07;;;;;;;;;;5072126;28;20863;-72
2020/12/20 09:43:18;;;;;;;14.20;11.00;;;;;;;;;;5068035;28;22411;-75
2020/12/20 09:45:44;;;;;;;12.80;9.30;;;;;;;;;;5064909;28;20574;-75
2020/12/20 09:48:11;;;;;;;11.77;10.10;;;;;;;;;;5069053;28;20523;-73
2020/12/20 09:50:38;;;;;;;12.30;9.80;;;;;;;;;;5069594;28;20540;-74
2020/12/20 09:53:05;;;;;;;13.50;10.17;;;;;;;;;;5069323;28;20551;-73
2020/12/20 09:55:33;;;;;;;11.43;9.40;;;;;;;;;;5069953;28;20547;-77
2020/12/20 09:57:59;;;;;;;12.30;9.97;;;;;;;;;;5070774;28;20458;-75
2020/12/20 10:00:26;;;;;;;12.37;9.83;;;;;;;;;;5070401;28;20442;-76
2020/12/20 10:02:53;;;;;;;15.17;10.60;;;;;;;;;;5070845;28;20468;-76
2020/12/20 10:05:20;;;;;;;12.37;9.47;;;;;;;;;;5067465;28;20435;-77
2020/12/20 10:07:47;;;;;;;11.40;9.57;;;;;;;;;;5065411;28;20434;-75
2020/12/20 10:10:14;;;;;;;12.13;9.97;;;;;;;;;;5068873;28;20835;-75
2020/12/20 10:12:41;;;;;;;11.80;9.60;;;;;;;;;;5069153;28;20934;-76
2020/12/20 10:15:08;;;;;;;12.83;10.20;;;;;;;;;;5068663;28;20502;-77
2020/12/20 10:17:35;;;;;;;11.53;9.30;;;;;;;;;;5068819;28;20466;-76
2020/12/20 10:20:03;;;;;;;13.57;8.80;;;;;;;;;;5070623;28;20443;-76
2020/12/20 10:22:30;;;;;;;10.30;8.83;;;;;;;;;;5070399;28;20440;-74
2020/12/20 10:24:57;;;;;;;14.87;9.03;;;;;;;;;;5071285;28;20447;-76
2020/12/20 10:27:24;;;;;;;11.20;10.00;;;;;;;;;;5068775;28;20660;-76
2020/12/20 10:29:51;;;;;;;12.40;9.77;;;;;;;;;;5065358;28;20508;-77
2020/12/20 10:32:18;;;;;;;10.40;9.30;;;;;;;;;;5053797;28;20907;-77
2020/12/20 10:34:45;;;;;;;13.10;9.03;;;;;;;;;;5047814;28;21064;-77
2020/12/20 10:37:12;;;;;;;9.77;8.77;;;;;;;;;;5048150;28;20983;-75
2020/12/20 10:39:39;;;;;;;15.40;8.60;;;;;;;;;;5049189;28;20457;-75
2020/12/20 10:42:05;;;;;;;9.53;8.53;;;;;;;;;;5051163;28;20451;-76
2020/12/20 10:44:32;;;;;;;14.03;8.63;;;;;;;;;;5053697;28;20529;-75
2020/12/20 10:47:00;;;;;;;9.90;8.90;;;;;;;;;;5054092;28;20492;-77
2020/12/20 10:49:27;;;;;;;11.93;9.00;;;;;;;;;;5057448;28;20535;-75
2020/12/20 10:51:54;;;;;;;11.67;9.37;;;;;;;;;;5068574;28;20436;-75
2020/12/20 10:54:21;;;;;;;9.87;8.43;;;;;;;;;;5069524;28;20455;-74
2020/12/20 10:56:48;;;;;;;10.97;8.77;;;;;;;;;;5058774;28;20526;-76
2020/12/20 10:59:15;;;;;;;11.00;9.70;;;;;;;;;;5051938;28;20843;-75
2020/12/20 11:01:42;;;;;;;11.37;9.53;;;;;;;;;;5046233;28;20519;-76
2020/12/20 11:04:10;;;;;;;12.13;9.60;;;;;;;;;;5050036;28;20817;-76
2020/12/20 11:06:36;;;;;;;10.53;8.60;;;;;;;;;;5054145;28;20491;-76
2020/12/20 11:09:03;;;;;;;13.33;9.53;;;;;;;;;;5053796;28;20457;-75
2020/12/20 11:11:31;;;;;;;14.17;10.30;;;;;;;;;;5054275;28;20653;-76
2020/12/20 11:13:58;;;;;;;10.60;9.00;;;;;;;;;;5067463;28;20475;-74
2020/12/20 11:16:25;;;;;;;17.23;9.27;;;;;;;;;;5068786;28;20857;-78
2020/12/20 11:18:52;;;;;;;9.47;8.40;;;;;;;;;;5071729;28;20510;-80
2020/12/20 11:21:20;;;;;;;13.57;9.30;;;;;;;;;;5071457;28;20447;-75
2020/12/20 11:23:48;;;;;;;11.07;8.20;;;;;;;;;;5070425;28;20509;-75
2020/12/20 11:26:15;;;;;;;12.00;8.30;;;;;;;;;;5072988;28;20494;-75
2020/12/20 11:28:42;;;;;;;13.10;9.17;;;;;;;;;;5073816;28;20555;-75
2020/12/20 11:31:10;;;;;;;14.80;8.43;;;;;;;;;;5073239;28;20491;-75
2020/12/20 11:33:37;;;;;;;11.10;8.60;;;;;;;;;;5072560;28;21010;-75
2020/12/20 11:36:04;;;;;;;10.90;8.30;;;;;;;;;;5067313;28;20453;-74
2020/12/20 11:38:32;;;;;;;9.23;8.27;;;;;;;;;;5058062;28;20439;-75
2020/12/20 11:40:59;;;;;;;10.10;8.30;;;;;;;;;;5050250;28;20510;-74
2020/12/20 11:43:25;;;;;;;9.37;7.60;;;;;;;;;;5050794;28;20471;-75
2020/12/20 11:45:52;;;;;;;10.10;8.23;;;;;;;;;;5051355;28;20488;-76
2020/12/20 11:48:19;;;;;;;10.87;8.30;;;;;;;;;;5052551;28;20447;-74
2020/12/20 11:50:46;;;;;;;12.40;8.10;;;;;;;;;;5052828;28;20809;-75
2020/12/20 11:53:13;;;;;;;10.57;8.37;;;;;;;;;;5052619;28;20468;-74
2020/12/20 11:55:41;;;;;;;10.20;7.63;;;;;;;;;;5053049;28;20449;-74
2020/12/20 11:58:12;;;;;;;10.33;7.70;;;;;;;;;;5063924;28;20944;-74
2020/12/20 12:00:41;;;;;;;10.40;7.73;;;;;;;;;;5061427;28;21016;-74
2020/12/20 12:03:08;;;;;;;10.70;7.67;;;;;;;;;;5050783;28;21207;-75
2020/12/20 12:05:36;;;;;;;10.27;8.50;;;;;;;;;;5050238;28;20536;-76
2020/12/20 12:08:03;;;;;;;9.40;8.17;;;;;;;;;;5051182;28;20477;-76
2020/12/20 12:10:29;;;;;;;11.40;8.70;;;;;;;;;;5051916;28;20817;-74
2020/12/20 12:12:57;;;;;;;10.30;7.60;;;;;;;;;;5052716;28;20610;-75
2020/12/20 12:15:24;;;;;;;13.17;9.23;;;;;;;;;;5052799;28;20897;-74
2020/12/20 12:17:51;;;;;;;11.43;8.27;;;;;;;;;;5052823;28;21002;-74
2020/12/20 12:20:18;;;;;;;9.50;7.43;;;;;;;;;;5062902;28;20427;-75
2020/12/20 12:22:46;;;;;;;10.00;7.77;;;;;;;;;;5067728;28;20439;-76
2020/12/20 12:25:13;;;;;;;10.50;7.63;;;;;;;;;;5058612;28;20459;-75
2020/12/20 12:27:39;;;;;;;14.23;7.40;;;;;;;;;;5048499;28;20477;-74
2020/12/20 12:30:07;;;;;;;9.60;7.43;;;;;;;;;;5047438;28;20445;-75
2020/12/20 12:32:34;;;;;;;11.10;8.60;;;;;;;;;;5047976;28;20499;-75
2020/12/20 12:35:01;;;;;;;10.80;7.23;;;;;;;;;;5063366;28;20532;-75
2020/12/20 12:37:27;;;;;;;11.90;7.87;;;;;;;;;;5065025;28;21231;-75
2020/12/20 12:39:54;;;;;;;10.87;7.83;;;;;;;;;;5067060;28;20451;-75
2020/12/20 12:42:21;;;;;;;10.77;7.20;;;;;;;;;;5067133;28;20443;-75
2020/12/20 12:44:49;;;;;;;9.70;7.53;;;;;;;;;;5066835;28;20486;-74
2020/12/20 12:47:17;;;;;;;9.73;6.73;;;;;;;;;;5049708;28;20489;-75
2020/12/20 12:49:44;;;;;;;12.77;7.30;;;;;;;;;;5048689;28;20529;-76
2020/12/20 12:52:11;;;;;;;12.37;7.90;;;;;;;;;;5045277;28;20464;-74
2020/12/20 12:54:38;;;;;;;13.50;7.60;;;;;;;;;;5059962;28;20457;-76
2020/12/20 12:57:04;;;;;;;10.20;7.33;;;;;;;;;;5061120;28;20458;-75
2020/12/20 12:59:31;;;;;;;12.87;7.70;;;;;;;;;;5063628;28;20450;-74
2020/12/20 13:01:58;;;;;;;9.07;6.83;;;;;;;;;;5066166;28;20448;-75
2020/12/20 13:04:26;;;;;;;9.60;7.13;;;;;;;;;;5064235;28;20466;-76
2020/12/20 13:06:53;;;;;;;11.43;7.27;;;;;;;;;;5066809;28;20487;-76
2020/12/20 13:09:20;;;;;;;9.10;7.37;;;;;;;;;;5047609;28;20488;-74
2020/12/20 13:11:47;;;;;;;14.23;6.97;;;;;;;;;;5046831;28;20444;-74
2020/12/20 13:14:14;;;;;;;9.57;7.00;;;;;;;;;;5048077;28;20465;-75
2020/12/20 13:16:41;;;;;;;9.97;7.13;;;;;;;;;;5047729;28;20449;-72
2020/12/20 13:19:07;;;;;;;8.67;6.33;;;;;;;;;;5062410;28;20439;-75
2020/12/20 13:21:35;;;;;;;12.63;7.50;;;;;;;;;;5066144;28;20493;-74
2020/12/20 13:24:02;;;;;;;9.77;6.23;;;;;;;;;;5068781;28;20487;-74
2020/12/20 13:26:30;;;;;;;9.00;6.47;;;;;;;;;;5066409;28;20486;-75
2020/12/20 13:28:57;;;;;;;12.33;6.47;;;;;;;;;;5049330;28;20524;-73
2020/12/20 13:31:23;;;;;;;9.77;7.37;;;;;;;;;;5050545;28;20808;-75
2020/12/20 13:33:50;;;;;;;11.40;6.40;;;;;;;;;;5051240;28;20465;-74
2020/12/20 13:36:18;;;;;;;9.73;6.20;;;;;;;;;;5050814;28;20447;-75
2020/12/20 13:38:45;;;;;;;12.13;7.13;;;;;;;;;;5050121;28;20806;-74
2020/12/20 13:41:14;;;;;;;17.20;8.03;;;;;;;;;;5059221;28;20439;-75
2020/12/20 13:43:40;;;;;;;8.10;6.77;;;;;;;;;;5064891;28;21077;-75
2020/12/20 13:46:07;;;;;;;7.10;6.27;;;;;;;;;;5068473;28;20844;-74
2020/12/20 13:48:34;;;;;;;11.70;6.77;;;;;;;;;;5059847;28;20465;-75
2020/12/20 13:51:03;;;;;;;10.57;6.87;;;;;;;;;;5049184;28;20523;-74
2020/12/20 13:53:29;;;;;;;14.00;7.13;;;;;;;;;;5050071;28;20824;-74
2020/12/20 13:55:57;;;;;;;9.67;6.60;;;;;;;;;;5051137;28;20476;-75
2020/12/20 13:58:24;;;;;;;8.57;6.67;;;;;;;;;;5051326;28;20451;-74
2020/12/20 14:00:51;;;;;;;8.33;5.53;;;;;;;;;;5050911;28;21019;-74
2020/12/20 14:03:18;;;;;;;7.17;5.67;;;;;;;;;;5060125;28;20474;-74
2020/12/20 14:05:44;;;;;;;7.97;5.60;;;;;;;;;;5065384;28;20429;-73
2020/12/20 14:08:12;;;;;;;7.70;5.80;;;;;;;;;;5062880;28;20473;-74
2020/12/20 14:10:38;;;;;;;8.37;5.10;;;;;;;;;;5048497;28;20969;-76
2020/12/20 14:13:06;;;;;;;6.73;4.10;;;;;;;;;;5047947;28;20554;-74
2020/12/20 14:15:33;;;;;;;5.90;4.13;;;;;;;;;;5063773;28;20446;-75
2020/12/20 14:17:59;;;;;;;5.30;3.40;;;;;;;;;;5075162;28;20527;-79
2020/12/20 14:20:26;;;;;;;7.87;3.37;;;;;;;;;;5074896;28;21015;-76
2020/12/20 14:22:53;;;;;;;8.80;3.60;;;;;;;;;;5074223;28;20452;-74
2020/12/20 14:25:20;;;;;;;7.37;3.33;;;;;;;;;;5071823;28;20563;-75
2020/12/20 14:27:47;;;;;;;3.30;2.60;;;;;;;;;;5068944;28;20502;-74
2020/12/20 14:30:15;;;;;;;4.73;2.60;;;;;;;;;;5051355;28;20441;-73
2020/12/20 14:32:41;;;;;;;4.87;2.60;;;;;;;;;;5051791;28;20431;-74
2020/12/20 14:35:08;;;;;;;3.63;2.10;;;;;;;;;;5053628;28;20443;-80
2020/12/20 14:37:35;;;;;;;6.23;2.63;;;;;;;;;;5051934;28;20468;-74
2020/12/20 14:40:02;;;;;;;4.53;2.23;;;;;;;;;;5066429;28;21039;-76